Laverton (Victoria), Victoria

11:35 AM EST on September 17, 2014 (GMT +1000)
Point Cook Weather | Change Station
CLOSE
Current Station
Personal Weather Station
Location: Point Cook, VICTORIA
Elevation: 43 ft
Nearby Weather Stations

Elev 43 ft 37.88 °S, 144.74 °E | Updated 13 seconds ago

Overcast
Overcast
59.5 °F
Feels Like 59.5 °F
N
10.3
Wind Variable Wind from NNW
Gusts 11.0 mph

Today
High -- | Low -- °F
--% Chance of Precip.
Yesterday
High -- | Low -- °F
Precip. -- in
6:19 AM 6:12 PM
Last Quarter, 40% visible
Pressure 29.95 in
Visibility 3.7 miles
Clouds Scattered Clouds 3000 ft
Scattered Clouds 3400 ft
Mostly Cloudy 4300 ft
Dew Point 40 °F
Humidity 48%
Rainfall 0.00 in
Snow Depth Not available.
UV 9.0 out of 12
Pollen Not available.
Air Quality Not available.
Flu Activity Not available.
SPECI YMAV 170133Z AUTO 27024G39KT 6000 -RA SCT030 SCT034 BKN043 10/06 Q1014

More Conditions Fewer Conditions

Pressure 29.95 in
Visibility 3.7 miles
Clouds Scattered Clouds 3000 ft
Scattered Clouds 3400 ft
Mostly Cloudy 4300 ft
Dew Point 40 °F
Humidity 48%
Rainfall 0.00 in
Snow Depth Not available.
UV 9.0 out of 12
Pollen Not available.
Air Quality Not available.
Flu Activity Not available.
SPECI YMAV 170133Z AUTO 27024G39KT 6000 -RA SCT030 SCT034 BKN043 10/06 Q1014

More Conditions Fewer Conditions

10-Day Weather Forecast

Almanac

Astronomy

Sep. 17, 2014 Rise Set
Actual Time 6:19 AM EST 6:12 PM EST
Civil Twilight 5:53 AM EST 6:39 PM EST
Nautical Twilight 5:22 AM EST 7:09 PM EST
Astronomical Twilight 4:51 AM EST 7:40 PM EST
Moon 1:40 AM EST 12:00 PM EST
Length of Visible Light 12h 46m
Length of Day
11h 53m
Tomorrow will be 2m 24s longer.
Last Quarter, 40% of the Moon is Illuminated
Sep 16
Last Quarter
Sep 24
New
Oct 1
First Quarter
Oct 8
Full
Oct 15
Last Quarter

Yesterday's Extremes

Country Highs Country Lows

Community

WunderPhotos

Upload Photos

1,753,943 photos uploaded!

Nearby

Snow Depth

Not available.

Earthquake Activity

City Distance Mag. Time & Date
No recent earthquake activity has been reported nearby.
Minimum magnitude displayed is 2.5.

Coastal Water Temperatures

Place Temperature
No Stations Reporting

Nearby Weather Stations